Time;durP1;ratioP1;P1;durP2;ratioP2;P2;SDS_P1;SDS_P2;PMS_P1;PMS_P2;Temp;Humidity;BMP_temperature;BMP_pressure;BME280_temperature;BME280_humidity;BME280_pressure;Samples;Min_cycle;Max_cycle;Signal;HPM_P1;HPM_P2
2022/09/18 00:00:12;;;;;;;5.50;0.50;;;;;;;7.74;100.00;100947.53;2087719;28;38103;-81
2022/09/18 00:01:21;;;;;;;8.50;0.43;;;;;;;7.72;100.00;100944.00;2088271;28;29807;-81
2022/09/18 00:02:23;;;;;;;9.32;0.80;;;;;;;7.67;100.00;100945.81;2088088;28;33139;-81
2022/09/18 00:03:27;;;;;;;9.77;0.90;;;;;;;7.67;100.00;100952.03;2086879;28;36636;-82
2022/09/18 00:04:29;;;;;;;12.95;1.08;;;;;;;7.63;100.00;100950.31;2087113;28;34020;-83
2022/09/18 00:05:35;;;;;;;7.22;0.65;;;;;;;7.63;100.00;100945.84;2087080;28;37517;-82
2022/09/18 00:06:42;;;;;;;10.93;0.80;;;;;;;7.64;100.00;100952.97;2087288;28;37229;-82
2022/09/18 00:07:46;;;;;;;11.35;1.25;;;;;;;7.60;100.00;100956.53;2087602;28;32467;-83
2022/09/18 00:08:57;;;;;;;6.03;0.60;;;;;;;7.57;100.00;100947.69;2087034;28;37129;-83
2022/09/18 00:09:58;;;;;;;10.43;0.77;;;;;;;7.59;100.00;100956.53;2088435;28;29607;-83
2022/09/18 00:11:05;;;;;;;11.05;0.88;;;;;;;7.61;100.00;100952.97;2087635;28;38257;-84
2022/09/18 00:12:07;;;;;;;11.70;0.47;;;;;;;7.62;100.00;100952.06;2088127;28;25379;-83
2022/09/18 00:13:09;;;;;;;10.23;0.60;;;;;;;7.62;100.00;100953.84;2087801;28;35912;-84
2022/09/18 00:14:16;;;;;;;10.52;0.90;;;;;;;7.63;100.00;100961.84;2079110;28;36539;-83
2022/09/18 00:15:17;;;;;;;7.97;0.60;;;;;;;7.69;100.00;100960.88;2080754;28;20085;-84
2022/09/18 00:16:22;;;;;;;6.55;0.47;;;;;;;7.69;100.00;100955.56;2079533;28;35059;-81
2022/09/18 00:17:23;;;;;;;10.05;0.57;;;;;;;7.74;100.00;100956.41;2079851;28;33753;-84
2022/09/18 00:18:25;;;;;;;8.40;0.50;;;;;;;7.81;100.00;100957.22;2080950;28;30291;-82
2022/09/18 00:19:30;;;;;;;6.97;0.60;;;;;;;7.80;100.00;100963.44;2087794;28;40271;-83
2022/09/18 00:20:34;;;;;;;6.80;0.60;;;;;;;7.83;100.00;100958.06;2088062;28;28449;-83
2022/09/18 00:21:41;;;;;;;7.72;0.50;;;;;;;7.85;100.00;100961.59;2087328;28;38845;-83
2022/09/18 00:22:43;;;;;;;9.70;0.90;;;;;;;7.88;100.00;100956.25;2087682;28;30508;-84
2022/09/18 00:23:46;;;;;;;7.65;0.32;;;;;;;7.92;100.00;100957.97;2087448;28;28746;-83
2022/09/18 00:24:48;;;;;;;10.93;0.60;;;;;;;7.95;100.00;100951.69;2087387;28;41600;-83
2022/09/18 00:25:49;;;;;;;10.43;0.95;;;;;;;7.95;100.00;100957.94;2087766;28;31762;-83
2022/09/18 00:26:51;;;;;;;8.40;0.50;;;;;;;7.96;100.00;100954.34;2087308;28;38477;-84
2022/09/18 00:27:53;;;;;;;7.20;0.75;;;;;;;7.98;100.00;100957.88;2087907;28;20056;-83
2022/09/18 00:28:56;;;;;;;9.43;0.50;;;;;;;7.98;100.00;100955.22;2086497;28;29438;-83
2022/09/18 00:29:59;;;;;;;9.60;0.43;;;;;;;8.00;100.00;100961.44;2079629;28;21056;-83
2022/09/18 00:31:18;;;;;;;11.68;0.75;;;;;;;8.03;100.00;100960.50;2079824;28;20046;-83
2022/09/18 00:32:19;;;;;;;10.18;0.50;;;;;;;8.03;100.00;100966.72;2096183;28;28840;-82
2022/09/18 00:33:21;;;;;;;6.15;0.68;;;;;;;8.06;100.00;100959.56;2095344;28;23701;-83
2022/09/18 00:34:23;;;;;;;11.15;0.68;;;;;;;8.09;100.00;100970.22;2087500;28;32450;-84
2022/09/18 00:35:25;;;;;;;8.73;0.70;;;;;;;8.08;100.00;100972.00;2086148;28;28862;-83
2022/09/18 00:36:28;;;;;;;5.28;0.43;;;;;;;8.09;100.00;100978.22;2088654;28;20904;-84
2022/09/18 00:37:29;;;;;;;7.63;0.50;;;;;;;8.10;100.00;100972.84;2087731;28;30791;-83
2022/09/18 00:38:33;;;;;;;7.07;0.52;;;;;;;8.13;100.00;100972.84;2088028;28;20042;-82
2022/09/18 00:39:35;;;;;;;9.60;0.73;;;;;;;8.14;100.00;100969.25;2079158;28;31646;-84
2022/09/18 00:40:39;;;;;;;8.05;0.50;;;;;;;8.15;100.00;100964.81;2087187;28;28056;-83
2022/09/18 00:41:43;;;;;;;11.52;0.60;;;;;;;8.17;100.00;100960.34;2087522;28;20042;-83
2022/09/18 00:42:45;;;;;;;6.97;0.40;;;;;;;8.18;100.00;100959.41;2087930;28;20148;-83
2022/09/18 00:43:46;;;;;;;7.90;0.70;;;;;;;8.21;100.00;100959.38;2094632;28;30729;-83
2022/09/18 00:44:50;;;;;;;9.13;0.50;;;;;;;8.25;100.00;100952.22;2096122;28;20928;-82
2022/09/18 00:46:25;;;;;;;7.80;0.40;;;;;;;8.23;100.00;100957.59;2087371;28;32273;-81
2022/09/18 00:47:36;;;;;;;5.20;0.30;;;;;;;8.25;99.15;100957.56;2087958;28;30732;-82
2022/09/18 00:49:07;;;;;;;6.95;0.38;;;;;;;8.25;99.11;100955.78;2095323;28;32400;-80
2022/09/18 00:50:23;;;;;;;5.68;0.25;;;;;;;8.22;99.20;100964.72;2087685;28;29936;-82
2022/09/18 00:51:26;;;;;;;4.60;0.45;;;;;;;8.20;100.00;100952.28;2081509;28;20038;-81
2022/09/18 00:52:51;;;;;;;6.50;0.30;;;;;;;8.17;100.00;100976.34;2087110;28;20044;-81
2022/09/18 00:54:07;;;;;;;5.50;0.35;;;;;;;8.14;100.00;100958.56;2088051;28;20142;-81
2022/09/18 00:55:10;;;;;;;4.20;0.25;;;;;;;8.10;100.00;100964.00;2086965;28;35834;-80
2022/09/18 00:56:14;;;;;;;4.43;0.30;;;;;;;8.08;100.00;100965.78;2081428;28;22550;-82
2022/09/18 00:57:25;;;;;;;5.45;0.20;;;;;;;8.00;100.00;100956.09;2096106;28;20738;-81
2022/09/18 00:58:27;;;;;;;7.32;0.32;;;;;;;7.96;100.00;100959.69;2093405;28;24982;-82
2022/09/18 00:59:33;;;;;;;6.63;0.43;;;;;;;7.93;100.00;100962.41;2088051;28;20046;-82
2022/09/18 01:00:34;;;;;;;5.75;0.28;;;;;;;7.90;100.00;100962.44;2096907;28;34078;-81
2022/09/18 01:01:36;;;;;;;6.78;0.30;;;;;;;7.86;100.00;100962.47;2096214;28;24512;-80
2022/09/18 01:02:44;;;;;;;7.60;0.25;;;;;;;7.85;100.00;100961.59;2088917;28;29130;-81
2022/09/18 01:03:46;;;;;;;6.57;0.55;;;;;;;7.76;100.00;100967.03;2088516;28;20156;-81
2022/09/18 01:04:49;;;;;;;9.25;0.40;;;;;;;7.69;100.00;100960.00;2081550;28;21167;-81
2022/09/18 01:06:14;;;;;;;6.50;0.40;;;;;;;7.62;100.00;100960.06;2088229;28;27710;-80
2022/09/18 01:08:02;;;;;;;4.75;0.30;;;;;;;7.55;100.00;100968.13;2089595;28;20870;-80
2022/09/18 01:09:16;;;;;;;9.43;0.40;;;;;;;7.50;100.00;100962.88;2088661;28;28825;-80
2022/09/18 01:10:49;;;;;;;7.80;0.55;;;;;;;7.41;100.00;100965.59;2089416;28;20058;-81
2022/09/18 01:12:27;;;;;;;6.10;0.50;;;;;;;7.43;100.00;100961.16;2089905;28;20799;-79
2022/09/18 01:13:44;;;;;;;5.32;0.45;;;;;;;7.36;100.00;100962.13;2088903;28;20108;-80
2022/09/18 01:15:04;;;;;;;8.70;0.55;;;;;;;7.32;100.00;100961.28;2084176;28;20386;-80
2022/09/18 01:16:57;;;;;;;8.88;0.35;;;;;;;7.25;100.00;100965.75;2091343;28;20049;-82
2022/09/18 01:18:25;;;;;;;4.82;0.65;;;;;;;7.20;100.00;100958.72;2095988;28;20038;-81
2022/09/18 01:20:11;;;;;;;10.20;0.60;;;;;;;7.14;100.00;100958.75;2092594;28;29300;-81
2022/09/18 01:21:26;;;;;;;6.22;0.40;;;;;;;7.14;100.00;100964.97;2083704;28;20053;-82
2022/09/18 01:23:22;;;;;;;7.63;0.50;;;;;;;7.10;100.00;100963.22;2105706;28;20032;-82
2022/09/18 01:24:53;;;;;;;5.30;0.68;;;;;;;7.19;100.00;100959.59;2089152;28;20034;-83
2022/09/18 01:26:23;;;;;;;7.75;0.35;;;;;;;7.19;100.00;100960.47;2097172;28;27375;-84
2022/09/18 01:28:02;;;;;;;8.75;0.50;;;;;;;7.19;100.00;100963.13;2088653;28;20979;-83
2022/09/18 01:29:19;;;;;;;9.52;0.52;;;;;;;7.30;100.00;100957.72;2087547;28;20826;-84
2022/09/18 01:30:23;;;;;;;6.00;0.30;;;;;;;7.38;100.00;100963.00;2088570;28;21016;-82
2022/09/18 01:31:41;;;;;;;7.97;0.50;;;;;;;7.35;100.00;100957.69;2080219;28;23147;-82
2022/09/18 01:32:54;;;;;;;6.93;0.75;;;;;;;7.36;100.00;100957.69;2080376;28;20041;-81
2022/09/18 01:34:07;;;;;;;9.88;0.50;;;;;;;7.39;100.00;100962.97;2079887;28;20248;-82
2022/09/18 01:35:35;;;;;;;8.95;0.40;;;;;;;7.42;100.00;100956.72;2066681;28;25322;-81
2022/09/18 01:36:51;;;;;;;10.38;0.32;;;;;;;7.41;100.00;100966.50;2074843;28;20940;-82
2022/09/18 01:38:24;;;;;;;7.15;0.60;;;;;;;7.42;100.00;100962.06;2080222;28;20926;-82
2022/09/18 01:39:36;;;;;;;9.80;0.68;;;;;;;7.47;100.00;100962.03;2070443;28;20895;-81
2022/09/18 01:41:33;;;;;;;6.97;0.50;;;;;;;7.44;100.00;100955.81;2092277;28;28574;-81
2022/09/18 01:42:38;;;;;;;4.88;0.50;;;;;;;7.46;100.00;100953.13;2079311;28;20172;-82
2022/09/18 01:43:43;;;;;;;5.15;0.52;;;;;;;7.42;100.00;100951.41;2079288;28;20050;-82
2022/09/18 01:44:48;;;;;;;8.00;0.88;;;;;;;7.41;100.00;100957.59;2080206;28;20164;-83
2022/09/18 01:45:55;;;;;;;12.30;0.50;;;;;;;7.44;100.00;100960.25;2089043;28;20050;-82
2022/09/18 01:47:09;;;;;;;7.63;0.50;;;;;;;7.36;100.00;100951.47;2097048;28;20157;-82
2022/09/18 01:48:21;;;;;;;9.98;0.50;;;;;;;7.38;100.00;100947.00;2096336;28;20037;-81
2022/09/18 01:49:31;;;;;;;6.72;0.57;;;;;;;7.38;100.00;100952.34;2089551;28;20887;-82
2022/09/18 01:50:42;;;;;;;10.15;0.70;;;;;;;7.35;100.00;100955.03;2074407;28;20830;-82
2022/09/18 01:51:53;;;;;;;9.52;0.75;;;;;;;7.35;100.00;100950.56;2073444;28;20053;-83
2022/09/18 01:53:27;;;;;;;8.82;0.70;;;;;;;7.32;100.00;100955.03;2093070;28;20940;-82
2022/09/18 01:54:36;;;;;;;7.53;0.68;;;;;;;7.28;100.00;100948.84;2090758;28;20103;-82
2022/09/18 01:55:43;;;;;;;11.55;0.80;;;;;;;7.24;100.00;100955.13;2077410;28;20040;-83
2022/09/18 01:56:51;;;;;;;8.18;0.40;;;;;;;7.23;100.00;100951.59;2091009;28;20599;-83
2022/09/18 01:58:05;;;;;;;9.30;0.85;;;;;;;7.22;100.00;100952.47;2095673;28;20041;-84
2022/09/18 01:59:21;;;;;;;9.30;0.80;;;;;;;7.16;100.00;100949.88;2091610;28;20037;-83
2022/09/18 02:00:31;;;;;;;10.23;0.77;;;;;;;7.16;100.00;100952.53;2103619;28;20130;-82
2022/09/18 02:01:37;;;;;;;9.35;0.70;;;;;;;7.18;100.00;100953.41;2096621;28;20033;-83
2022/09/18 02:03:12;;;;;;;12.93;0.90;;;;;;;7.16;100.00;100955.19;2081189;28;24403;-82
2022/09/18 02:04:26;;;;;;;12.95;0.85;;;;;;;7.16;100.00;100954.28;2077413;28;20045;-82
2022/09/18 02:05:47;;;;;;;14.82;0.90;;;;;;;7.15;100.00;100952.53;2081319;28;20038;-82
2022/09/18 02:07:21;;;;;;;13.60;0.95;;;;;;;7.15;100.00;100948.09;2099981;28;20089;-81
2022/09/18 02:08:38;;;;;;;9.68;0.50;;;;;;;7.11;100.00;100943.69;2091129;28;21008;-82
2022/09/18 02:09:42;;;;;;;9.15;1.20;;;;;;;7.12;100.00;100940.13;2082753;28;20034;-83
2022/09/18 02:10:57;;;;;;;9.85;0.85;;;;;;;7.11;100.00;100945.50;2101612;28;20375;-83
2022/09/18 02:12:05;;;;;;;9.20;0.40;;;;;;;7.11;100.00;100946.38;2094826;28;20045;-83
2022/09/18 02:13:18;;;;;;;12.50;0.60;;;;;;;7.14;100.00;100943.69;2083473;28;20281;-83
2022/09/18 02:14:37;;;;;;;8.52;0.70;;;;;;;7.15;100.00;100952.53;2089866;28;20168;-83
2022/09/18 02:16:05;;;;;;;10.43;1.02;;;;;;;7.14;100.00;100941.03;2085216;28;20042;-83
2022/09/18 02:17:19;;;;;;;14.13;0.73;;;;;;;7.18;100.00;100931.22;2081939;28;20053;-83
2022/09/18 02:18:31;;;;;;;11.13;0.60;;;;;;;7.13;100.00;100933.03;2077509;28;20042;-83
2022/09/18 02:19:41;;;;;;;10.57;0.60;;;;;;;7.15;100.00;100937.44;2076057;28;20168;-82
2022/09/18 02:20:46;;;;;;;10.02;0.70;;;;;;;7.10;100.00;100935.72;2080558;28;20197;-83
2022/09/18 02:21:51;;;;;;;10.38;0.70;;;;;;;7.10;100.00;100925.06;2080795;28;29361;-83
2022/09/18 02:22:58;;;;;;;11.65;0.57;;;;;;;7.06;100.00;100926.88;2089025;28;20063;-84
2022/09/18 02:24:08;;;;;;;9.52;1.02;;;;;;;7.06;100.00;100926.88;2089885;28;20045;-84
2022/09/18 02:25:14;;;;;;;11.63;0.70;;;;;;;7.06;100.00;100922.44;2088557;28;20635;-83
2022/09/18 02:26:18;;;;;;;10.13;0.50;;;;;;;7.08;100.00;100928.63;2081039;28;20854;-84
2022/09/18 02:27:23;;;;;;;8.38;0.77;;;;;;;7.08;100.00;100925.09;2096677;28;20087;-83
2022/09/18 02:28:29;;;;;;;14.85;1.10;;;;;;;7.12;100.00;100937.47;2087106;28;26681;-84
2022/09/18 02:29:32;;;;;;;11.60;0.80;;;;;;;7.10;100.00;100928.59;2081019;28;20829;-85
2022/09/18 02:30:38;;;;;;;8.80;0.68;;;;;;;7.10;100.00;100922.41;2088579;28;32806;-87
2022/09/18 02:31:40;;;;;;;9.18;0.52;;;;;;;7.06;100.00;100921.56;2090653;28;32173;-83
2022/09/18 02:32:41;;;;;;;9.25;0.50;;;;;;;7.12;100.00;100925.94;2091727;28;20201;-84
2022/09/18 02:33:43;;;;;;;12.20;1.08;;;;;;;7.11;100.00;100925.06;2099989;28;37408;-84
2022/09/18 02:34:45;;;;;;;8.43;0.85;;;;;;;7.10;100.00;100928.59;2102191;28;20056;-84
2022/09/18 02:36:00;;;;;;;10.57;0.95;;;;;;;7.16;100.00;100922.34;2092944;28;26658;-84
2022/09/18 02:37:31;;;;;;;13.25;1.25;;;;;;;7.16;100.00;100915.25;2086729;28;20084;-84
2022/09/18 02:39:13;;;;;;;9.57;0.50;;;;;;;7.11;100.00;100918.88;2089348;28;20041;-86
2022/09/18 02:40:37;;;;;;;10.85;0.80;;;;;;;7.12;100.00;100918.81;2093012;28;20041;-85
2022/09/18 02:41:55;;;;;;;9.82;0.63;;;;;;;7.10;100.00;100914.41;2087048;28;21118;-86
2022/09/18 02:43:19;;;;;;;8.80;0.73;;;;;;;7.12;100.00;100910.84;2092956;28;20053;-86
2022/09/18 02:44:52;;;;;;;9.75;0.47;;;;;;;7.08;100.00;100914.44;2090526;28;20147;-86
2022/09/18 02:46:41;;;;;;;9.13;0.65;;;;;;;7.08;100.00;100915.31;2092543;28;20179;-84
2022/09/18 02:48:12;;;;;;;11.43;0.68;;;;;;;7.06;100.00;100922.44;2086639;28;20961;-85
2022/09/18 02:49:32;;;;;;;12.38;0.75;;;;;;;7.06;100.00;100921.56;2087942;28;20249;-83
2022/09/18 02:50:57;;;;;;;11.52;0.70;;;;;;;7.08;100.00;100922.41;2080692;28;20053;-85
2022/09/18 02:52:14;;;;;;;8.73;0.80;;;;;;;7.09;100.00;100932.19;2083304;28;20964;-84
2022/09/18 02:53:39;;;;;;;7.65;0.50;;;;;;;7.14;100.00;100937.44;2084828;28;20034;-84
2022/09/18 02:55:16;;;;;;;10.30;0.70;;;;;;;7.19;100.00;100939.16;2093281;28;20037;-84
2022/09/18 02:56:40;;;;;;;13.35;0.82;;;;;;;7.25;100.00;100936.47;2087000;28;20949;-83
2022/09/18 02:58:04;;;;;;;13.20;0.90;;;;;;;7.34;100.00;100927.50;2091743;28;20049;-82
2022/09/18 02:59:28;;;;;;;7.88;0.75;;;;;;;7.44;100.00;100930.94;2076344;28;20816;-85
2022/09/18 03:00:31;;;;;;;9.43;0.60;;;;;;;7.51;100.00;100919.34;2073728;28;20038;-82
2022/09/18 03:01:41;;;;;;;7.20;0.60;;;;;;;7.53;100.00;100921.97;2088111;28;20794;-82
2022/09/18 03:02:46;;;;;;;8.93;0.70;;;;;;;7.55;100.00;100926.38;2096786;28;20044;-81
2022/09/18 03:03:52;;;;;;;11.70;0.95;;;;;;;7.63;100.00;100934.31;2086307;28;20545;-82
2022/09/18 03:05:05;;;;;;;10.02;0.88;;;;;;;7.62;100.00;100936.06;2072928;28;20057;-80
2022/09/18 03:06:26;;;;;;;8.40;0.45;;;;;;;7.69;100.00;100914.72;2082836;28;20077;-80
2022/09/18 03:07:30;;;;;;;11.48;0.50;;;;;;;7.76;100.00;100924.41;2079494;28;20120;-80
2022/09/18 03:08:33;;;;;;;8.32;0.60;;;;;;;7.76;100.00;100925.28;2087884;28;20045;-80
2022/09/18 03:09:36;;;;;;;9.07;0.88;;;;;;;7.78;100.00;100914.59;2087063;28;20042;-79
2022/09/18 03:10:37;;;;;;;9.48;0.60;;;;;;;7.79;100.00;100921.72;2073347;28;20042;-80
2022/09/18 03:11:39;;;;;;;6.07;0.50;;;;;;;7.80;100.00;100921.66;2079554;28;20100;-81
2022/09/18 03:12:41;;;;;;;6.97;0.50;;;;;;;7.81;100.00;100912.78;2088572;28;20083;-81
2022/09/18 03:13:43;;;;;;;14.23;1.05;;;;;;;7.81;100.00;100917.22;2095652;28;28178;-81
2022/09/18 03:14:45;;;;;;;4.28;0.30;;;;;;;7.80;100.00;100911.00;2104737;28;20948;-80
2022/09/18 03:15:47;;;;;;;10.13;0.75;;;;;;;7.81;100.00;100915.44;2103747;28;25976;-80
2022/09/18 03:16:49;;;;;;;6.35;0.70;;;;;;;7.80;100.00;100919.00;2094794;28;33628;-80
2022/09/18 03:17:52;;;;;;;6.90;0.70;;;;;;;7.79;100.00;100913.72;2104057;28;20869;-81
2022/09/18 03:18:54;;;;;;;9.07;0.70;;;;;;;7.76;100.00;100916.41;2104489;28;20079;-80
2022/09/18 03:19:57;;;;;;;11.57;0.60;;;;;;;7.74;100.00;100921.75;2087669;28;20038;-80
2022/09/18 03:20:58;;;;;;;6.88;0.30;;;;;;;7.71;100.00;100919.09;2079543;28;22063;-80
2022/09/18 03:22:00;;;;;;;5.88;0.52;;;;;;;7.68;100.00;100920.91;2078558;28;20049;-80
2022/09/18 03:23:04;;;;;;;12.88;0.70;;;;;;;7.67;100.00;100925.38;2079663;28;20042;-81
2022/09/18 03:24:08;;;;;;;7.80;0.52;;;;;;;7.67;100.00;100927.16;2079395;28;20910;-80
2022/09/18 03:25:14;;;;;;;10.43;0.70;;;;;;;7.66;100.00;100926.25;2080560;28;20892;-81
2022/09/18 03:26:17;;;;;;;7.57;0.47;;;;;;;7.64;100.00;100926.31;2088298;28;20037;-82
2022/09/18 03:27:19;;;;;;;8.60;0.50;;;;;;;7.68;100.00;100923.59;2088250;28;20908;-82
2022/09/18 03:28:21;;;;;;;8.60;0.82;;;;;;;7.70;100.00;100921.78;2086486;28;20038;-82
2022/09/18 03:29:25;;;;;;;7.15;0.40;;;;;;;7.71;100.00;100928.91;2063740;28;20046;-82
2022/09/18 03:30:30;;;;;;;12.65;0.82;;;;;;;7.74;100.00;100926.19;2080620;28;20172;-82
2022/09/18 03:31:32;;;;;;;5.10;0.30;;;;;;;7.71;100.00;100918.22;2086879;28;20815;-80
2022/09/18 03:32:35;;;;;;;7.05;0.50;;;;;;;7.73;100.00;100925.28;2071113;28;20169;-81
2022/09/18 03:33:39;;;;;;;9.23;0.50;;;;;;;7.72;100.00;100922.69;2072180;28;20965;-80
2022/09/18 03:34:44;;;;;;;11.48;0.75;;;;;;;7.72;100.00;100920.00;2087984;28;20930;-80
2022/09/18 03:35:45;;;;;;;11.57;0.65;;;;;;;7.74;100.00;100923.53;2087470;28;20025;-81
2022/09/18 03:36:47;;;;;;;10.93;0.82;;;;;;;7.73;100.00;100919.09;2094048;28;20052;-80
2022/09/18 03:37:50;;;;;;;8.45;0.65;;;;;;;7.72;100.00;100920.00;2112646;28;20044;-80
2022/09/18 03:38:55;;;;;;;7.75;0.65;;;;;;;7.72;100.00;100925.34;2104370;28;20045;-79
2022/09/18 03:39:57;;;;;;;7.03;0.40;;;;;;;7.71;100.00;100916.44;2104671;28;20025;-79
2022/09/18 03:40:59;;;;;;;6.95;0.60;;;;;;;7.72;100.00;100922.69;2096027;28;20912;-79
2022/09/18 03:42:02;;;;;;;10.00;0.73;;;;;;;7.72;100.00;100917.34;2090083;28;20045;-79
2022/09/18 03:43:08;;;;;;;10.93;0.50;;;;;;;7.70;100.00;100913.78;2087539;28;20033;-78
2022/09/18 03:44:10;;;;;;;10.82;0.70;;;;;;;7.71;100.00;100921.78;2080412;28;20042;-79
2022/09/18 03:45:17;;;;;;;7.32;0.40;;;;;;;7.69;100.00;100922.72;2079540;28;20096;-81
2022/09/18 03:46:22;;;;;;;8.35;0.57;;;;;;;7.67;100.00;100914.72;2072558;28;20101;-79
2022/09/18 03:47:30;;;;;;;6.63;0.57;;;;;;;7.63;100.00;100916.53;2080517;28;20241;-80
2022/09/18 03:48:36;;;;;;;7.43;0.80;;;;;;;7.59;100.00;100917.47;2080272;28;20883;-79
2022/09/18 03:49:38;;;;;;;10.20;0.70;;;;;;;7.54;100.00;100913.97;2087884;28;20038;-79
2022/09/18 03:50:40;;;;;;;9.45;0.82;;;;;;;7.50;100.00;100912.25;2104300;28;20044;-79
2022/09/18 03:51:42;;;;;;;9.35;0.73;;;;;;;7.49;100.00;100909.59;2094743;28;20146;-79
2022/09/18 03:52:47;;;;;;;8.57;0.60;;;;;;;7.44;100.00;100910.50;2087806;28;20049;-80
2022/09/18 03:54:25;;;;;;;6.90;0.50;;;;;;;7.39;100.00;100903.47;2078976;28;20050;-80
2022/09/18 03:55:37;;;;;;;9.90;0.90;;;;;;;7.34;100.00;100905.28;2084972;28;20049;-80
2022/09/18 03:57:16;;;;;;;5.15;0.50;;;;;;;7.31;100.00;100900.91;2078275;28;20851;-79
2022/09/18 03:58:32;;;;;;;10.75;0.65;;;;;;;7.31;100.00;100903.56;2070818;28;20179;-79
2022/09/18 03:59:59;;;;;;;5.10;0.40;;;;;;;7.32;100.00;100902.69;2066586;28;20042;-80
2022/09/18 04:01:15;;;;;;;5.10;0.65;;;;;;;7.32;100.00;100912.44;2072410;28;20876;-80
2022/09/18 04:02:38;;;;;;;12.98;0.77;;;;;;;7.31;100.00;100908.03;2074069;28;20073;-80
2022/09/18 04:04:03;;;;;;;10.30;0.60;;;;;;;7.34;100.00;100907.97;2084821;28;20057;-80
2022/09/18 04:05:31;;;;;;;8.65;0.75;;;;;;;7.32;100.00;100910.66;2087945;28;20057;-82
2022/09/18 04:06:51;;;;;;;9.00;0.60;;;;;;;7.28;100.00;100902.72;2087996;28;20092;-81
2022/09/18 04:08:13;;;;;;;6.95;0.80;;;;;;;7.27;100.00;100904.50;2096051;28;20135;-81
2022/09/18 04:09:33;;;;;;;10.23;0.98;;;;;;;7.24;100.00;100909.84;2096583;28;20045;-80
2022/09/18 04:10:35;;;;;;;7.95;0.68;;;;;;;7.20;100.00;100906.34;2096134;28;24763;-81
2022/09/18 04:11:42;;;;;;;8.93;0.98;;;;;;;7.17;100.00;100895.69;2095627;28;20179;-81
2022/09/18 04:12:44;;;;;;;10.73;0.50;;;;;;;7.15;100.00;100900.16;2081690;28;20839;-81
2022/09/18 04:13:54;;;;;;;;;;;;;;;7.12;100.00;100910.84;2079991;28;20034;-81
2022/09/18 04:14:56;;;;;;;10.70;1.05;;;;;;;7.12;100.00;100904.63;2087558;28;19935;-81
2022/09/18 04:15:58;;;;;;;9.27;0.85;;;;;;;7.10;100.00;100906.44;2087438;28;20419;-81
2022/09/18 04:17:02;;;;;;;9.27;0.70;;;;;;;7.10;100.00;100904.66;2079663;28;20791;-81
2022/09/18 04:18:05;;;;;;;8.90;0.73;;;;;;;7.06;100.00;100905.56;2079328;28;20046;-82
2022/09/18 04:19:07;;;;;;;8.73;0.75;;;;;;;7.04;100.00;100907.38;2079646;28;30005;-82
2022/09/18 04:20:09;;;;;;;8.40;0.70;;;;;;;7.04;100.00;100905.59;2087929;28;33753;-82
2022/09/18 04:21:11;;;;;;;7.75;0.60;;;;;;;7.02;100.00;100906.50;2088518;28;20037;-82
2022/09/18 04:22:12;;;;;;;5.18;0.40;;;;;;;7.05;100.00;100903.78;2095645;28;20925;-82
2022/09/18 04:23:14;;;;;;;7.47;0.60;;;;;;;7.05;100.00;100896.72;2095826;28;26329;-82
2022/09/18 04:24:16;;;;;;;8.82;0.50;;;;;;;7.05;100.00;100899.38;2096280;28;20042;-82
2022/09/18 04:25:18;;;;;;;5.07;0.52;;;;;;;7.08;100.00;100893.13;2103811;28;20037;-82
2022/09/18 04:26:21;;;;;;;7.93;0.70;;;;;;;7.10;100.00;100896.66;2094821;28;20041;-83
2022/09/18 04:27:28;;;;;;;9.52;0.60;;;;;;;7.08;100.00;100904.66;2080079;28;20045;-82
2022/09/18 04:28:29;;;;;;;9.75;0.98;;;;;;;7.08;100.00;100899.34;2079299;28;20906;-82
2022/09/18 04:29:32;;;;;;;11.25;0.88;;;;;;;7.11;100.00;100898.44;2079193;28;20042;-83
2022/09/18 04:30:36;;;;;;;12.82;0.60;;;;;;;7.13;100.00;100890.44;2079596;28;20084;-82
2022/09/18 04:31:37;;;;;;;11.00;0.70;;;;;;;7.14;100.00;100901.09;2078886;28;20054;-82
2022/09/18 04:32:44;;;;;;;10.32;0.60;;;;;;;7.17;100.00;100906.34;2079431;28;20038;-82
2022/09/18 04:33:46;;;;;;;6.88;0.40;;;;;;;7.19;100.00;100893.91;2080202;28;20042;-82
2022/09/18 04:34:48;;;;;;;8.07;0.55;;;;;;;7.19;100.00;100901.88;2089240;28;20969;-82
2022/09/18 04:35:50;;;;;;;10.52;0.57;;;;;;;7.22;100.00;100893.00;2088519;28;20052;-82
2022/09/18 04:36:52;;;;;;;11.75;0.63;;;;;;;7.25;100.00;100903.63;2095589;28;20056;-82
2022/09/18 04:37:54;;;;;;;9.73;0.43;;;;;;;7.26;100.00;100902.72;2089030;28;20045;-82
2022/09/18 04:38:57;;;;;;;8.20;0.57;;;;;;;7.25;100.00;100891.19;2072446;28;20047;-83
2022/09/18 04:39:58;;;;;;;11.65;0.80;;;;;;;7.26;100.00;100892.06;2081149;28;20081;-82
2022/09/18 04:41:02;;;;;;;8.43;1.10;;;;;;;7.30;100.00;100890.25;2088536;28;20167;-82
2022/09/18 04:42:04;;;;;;;9.23;0.45;;;;;;;7.31;100.00;100898.25;2074533;28;20211;-82
2022/09/18 04:43:09;;;;;;;6.55;0.50;;;;;;;7.31;100.00;100889.38;2080647;28;20042;-81
2022/09/18 04:44:14;;;;;;;6.47;0.60;;;;;;;7.31;100.00;100889.38;2081074;28;20053;-82
2022/09/18 04:45:17;;;;;;;9.65;0.80;;;;;;;7.32;100.00;100893.78;2089534;28;20042;-82
2022/09/18 04:46:20;;;;;;;9.13;0.75;;;;;;;7.28;100.00;100884.06;2089353;28;20038;-81
2022/09/18 04:47:24;;;;;;;11.90;0.70;;;;;;;7.30;100.00;100888.47;2081292;28;20042;-82
2022/09/18 04:48:26;;;;;;;8.68;0.95;;;;;;;7.29;100.00;100886.72;2087953;28;20457;-82
2022/09/18 04:49:29;;;;;;;6.70;0.50;;;;;;;7.24;100.00;100884.09;2105550;28;20032;-82
2022/09/18 04:50:31;;;;;;;7.40;0.40;;;;;;;7.29;100.00;100883.19;2105603;28;20821;-82
2022/09/18 04:51:58;;;;;;;8.55;0.70;;;;;;;7.31;100.00;100890.25;2093201;28;20042;-81
2022/09/18 04:53:02;;;;;;;6.90;0.70;;;;;;;7.32;100.00;100891.13;2096798;28;20107;-81
2022/09/18 04:54:06;;;;;;;9.00;0.73;;;;;;;7.32;100.00;100885.78;2096926;28;20154;-82
2022/09/18 04:55:10;;;;;;;12.30;0.77;;;;;;;7.34;100.00;100887.56;2096039;28;20049;-80
2022/09/18 04:56:14;;;;;;;6.50;0.60;;;;;;;7.36;100.00;100884.88;2089260;28;20045;-81
2022/09/18 04:57:20;;;;;;;9.68;0.80;;;;;;;7.36;100.00;100884.88;2097152;28;20119;-81
2022/09/18 04:58:22;;;;;;;11.40;0.70;;;;;;;7.38;100.00;100896.41;2096306;28;32362;-84
2022/09/18 04:59:30;;;;;;;10.77;0.60;;;;;;;7.40;100.00;100883.94;2096050;28;20033;-83
2022/09/18 05:00:34;;;;;;;7.68;0.60;;;;;;;7.41;100.00;100891.94;2096621;28;20210;-84
2022/09/18 05:01:39;;;;;;;7.90;0.52;;;;;;;7.43;100.00;100891.91;2089278;28;20168;-84
2022/09/18 05:02:45;;;;;;;9.43;0.77;;;;;;;7.45;100.00;100887.44;2097409;28;20040;-84
2022/09/18 05:03:50;;;;;;;11.10;0.98;;;;;;;7.45;100.00;100880.31;2088959;28;20076;-84
2022/09/18 05:05:00;;;;;;;6.93;0.70;;;;;;;7.48;100.00;100886.50;2081157;28;20080;-84
2022/09/18 05:06:07;;;;;;;7.25;0.45;;;;;;;7.48;100.00;100884.72;2081164;28;20175;-83
2022/09/18 05:07:09;;;;;;;12.52;0.50;;;;;;;7.49;100.00;100886.50;2088806;28;20038;-83
2022/09/18 05:08:14;;;;;;;9.48;0.52;;;;;;;7.50;100.00;100882.03;2088822;28;20038;-84
2022/09/18 05:09:16;;;;;;;8.52;0.68;;;;;;;7.49;100.00;100886.50;2080347;28;20395;-84
2022/09/18 05:10:17;;;;;;;9.20;0.70;;;;;;;7.48;100.00;100882.06;2080669;28;20034;-83
2022/09/18 05:11:19;;;;;;;10.60;0.93;;;;;;;7.48;100.00;100879.41;2088605;28;20165;-84
2022/09/18 05:12:21;;;;;;;8.63;0.77;;;;;;;7.48;100.00;100879.41;2096886;28;20041;-83
2022/09/18 05:13:23;;;;;;;10.15;0.70;;;;;;;7.48;100.00;100871.41;2088652;28;20033;-83
2022/09/18 05:14:39;;;;;;;10.80;0.63;;;;;;;7.49;100.00;100882.97;2088694;28;20049;-83
2022/09/18 05:15:43;;;;;;;6.15;0.50;;;;;;;7.48;100.00;100882.06;2088354;28;20136;-84
2022/09/18 05:16:45;;;;;;;8.27;0.55;;;;;;;7.50;100.00;100880.28;2097021;28;20041;-84
2022/09/18 05:18:04;;;;;;;9.27;0.73;;;;;;;7.53;100.00;100884.69;2080607;28;20041;-84
2022/09/18 05:19:11;;;;;;;6.38;0.50;;;;;;;7.55;100.00;100883.75;2080891;28;20116;-84
2022/09/18 05:20:13;;;;;;;7.40;0.40;;;;;;;7.57;100.00;100884.66;2088571;28;20050;-85
2022/09/18 05:21:16;;;;;;;10.30;0.70;;;;;;;7.60;100.00;100886.38;2088674;28;20038;-84
2022/09/18 05:22:18;;;;;;;6.85;0.50;;;;;;;7.65;100.00;100879.22;2097157;28;20041;-85
2022/09/18 05:23:23;;;;;;;4.85;0.60;;;;;;;7.70;100.00;100881.81;2104798;28;20082;-84
2022/09/18 05:24:25;;;;;;;7.07;0.63;;;;;;;7.76;100.00;100887.09;2105687;28;20047;-84